Time;durP1;ratioP1;P1;durP2;ratioP2;P2;SDS_P1;SDS_P2;PMS_P1;PMS_P2;Temp;Humidity;BMP_temperature;BMP_pressure;BME280_temperature;BME280_humidity;BME280_pressure;Samples;Min_cycle;Max_cycle;Signal;HPM_P1;HPM_P2
2022/04/05 00:01:00;;;;;;;41.28;23.08;;;;;;;9.12;100.00;100447.44;5092787;28;20027;-69
2022/04/05 00:03:27;;;;;;;34.92;22.95;;;;;;;9.09;100.00;100451.13;5086026;28;20024;-69
2022/04/05 00:05:52;;;;;;;44.30;22.73;;;;;;;9.10;100.00;100449.31;5090388;28;20024;-69
2022/04/05 00:08:18;;;;;;;36.63;21.33;;;;;;;9.08;100.00;100445.91;5096413;28;20028;-69
2022/04/05 00:10:47;;;;;;;33.95;20.95;;;;;;;9.08;100.00;100449.41;5087940;28;20423;-69
2022/04/05 00:13:13;;;;;;;34.90;21.63;;;;;;;9.06;100.00;100451.31;5092090;28;20033;-69
2022/04/05 00:15:38;;;;;;;34.42;20.85;;;;;;;9.01;100.00;100444.59;5090257;28;20043;-69
2022/04/05 00:18:04;;;;;;;40.30;20.63;;;;;;;9.04;100.00;100447.91;5092527;28;20051;-69
2022/04/05 00:20:34;;;;;;;32.50;20.35;;;;;;;9.06;100.00;100451.31;5089729;28;20387;-69
2022/04/05 00:22:59;;;;;;;36.45;19.17;;;;;;;9.01;100.00;100460.50;5096435;28;20028;-69
2022/04/05 00:25:25;;;;;;;33.88;21.52;;;;;;;9.04;100.00;100455.84;5073333;28;20481;-69
2022/04/05 00:27:53;;;;;;;43.83;20.88;;;;;;;9.02;100.00;100457.75;5091903;28;20425;-69
2022/04/05 00:30:19;;;;;;;41.92;19.83;;;;;;;9.03;100.00;100456.81;5088376;28;20475;-69
2022/04/05 00:32:44;;;;;;;33.65;20.77;;;;;;;9.02;100.00;100452.44;5090439;28;20077;-69
2022/04/05 00:35:11;;;;;;;37.42;20.42;;;;;;;9.04;100.00;100457.66;5072371;28;20434;-68
2022/04/05 00:37:39;;;;;;;37.90;21.13;;;;;;;9.00;100.00;100450.81;5089862;28;20388;-68
2022/04/05 00:40:06;;;;;;;41.63;21.77;;;;;;;9.00;100.00;100456.13;5097299;28;20119;-68
2022/04/05 00:42:32;;;;;;;36.28;21.27;;;;;;;9.00;100.00;100443.75;5097546;28;20103;-69
2022/04/05 00:44:58;;;;;;;39.58;21.60;;;;;;;9.00;100.00;100441.09;5090647;28;20028;-69
2022/04/05 00:47:24;;;;;;;42.05;22.48;;;;;;;9.03;100.00;100455.94;5090852;28;20498;-68
2022/04/05 00:49:52;;;;;;;35.28;21.15;;;;;;;8.92;100.00;100443.38;5089378;28;20039;-69
2022/04/05 00:52:21;;;;;;;46.85;21.65;;;;;;;8.99;100.00;100449.13;5088089;28;20115;-68
2022/04/05 00:54:49;;;;;;;37.75;22.25;;;;;;;8.97;100.00;100462.50;5086807;28;20511;-69
2022/04/05 00:57:19;;;;;;;40.15;19.95;;;;;;;8.98;100.00;100464.19;5089700;28;20135;-69
2022/04/05 00:59:46;;;;;;;;;;;;;;;9.00;100.00;100464.09;5090775;28;20513;-68
2022/04/05 01:02:18;;;;;;;35.85;21.08;;;;;;;8.96;100.00;100457.28;5089035;28;19994;-69
2022/04/05 01:04:47;;;;;;;38.88;22.38;;;;;;;8.93;100.00;100454.81;5092118;28;20026;-69
2022/04/05 01:07:18;;;;;;;37.78;21.73;;;;;;;8.96;100.00;100449.31;5088385;28;20020;-69
2022/04/05 01:09:44;;;;;;;38.85;22.45;;;;;;;8.94;100.00;100453.88;5093429;28;20490;-69
2022/04/05 01:12:12;;;;;;;38.67;22.70;;;;;;;8.95;100.00;100461.75;5087173;28;20034;-69
2022/04/05 01:14:39;;;;;;;40.22;22.63;;;;;;;8.98;100.00;100455.41;5090859;28;20024;-69
2022/04/05 01:17:06;;;;;;;38.50;22.25;;;;;;;8.91;100.00;100454.91;5088589;28;20027;-69
2022/04/05 01:19:36;;;;;;;39.60;21.92;;;;;;;8.95;100.00;100456.44;5087689;28;20144;-69
2022/04/05 01:22:02;;;;;;;40.95;23.25;;;;;;;8.92;100.00;100461.94;5088737;28;20032;-69
2022/04/05 01:24:28;;;;;;;38.83;22.75;;;;;;;8.96;100.00;100455.47;5092297;28;20024;-69
2022/04/05 01:26:56;;;;;;;45.47;23.15;;;;;;;8.94;100.00;100462.69;5072711;28;20731;-69
2022/04/05 01:29:25;;;;;;;39.97;21.92;;;;;;;8.93;100.00;100468.94;5089643;28;20028;-68
2022/04/05 01:32:00;;;;;;;45.85;24.05;;;;;;;8.92;100.00;100464.59;5089332;28;20028;-69
2022/04/05 01:34:28;;;;;;;37.70;22.15;;;;;;;8.91;100.00;100465.50;5090132;28;20071;-69
2022/04/05 01:36:55;;;;;;;37.22;21.83;;;;;;;8.91;100.00;100473.47;5089376;28;20020;-69
2022/04/05 01:39:23;;;;;;;39.97;21.80;;;;;;;8.91;100.00;100470.81;5103150;28;20475;-68
2022/04/05 01:41:54;;;;;;;34.95;21.45;;;;;;;8.91;100.00;100477.94;5088879;28;20161;-68
2022/04/05 01:44:20;;;;;;;36.55;20.95;;;;;;;8.92;100.00;100466.41;5094332;28;20016;-68
2022/04/05 01:46:48;;;;;;;42.22;22.17;;;;;;;8.91;100.00;100470.81;5090585;28;20089;-68
2022/04/05 01:49:14;;;;;;;35.47;21.33;;;;;;;8.90;100.00;100465.63;5094164;28;20077;-69
2022/04/05 01:51:41;;;;;;;42.30;21.40;;;;;;;8.91;100.00;100477.94;5071481;28;20044;-69
2022/04/05 01:54:09;;;;;;;34.20;20.20;;;;;;;8.90;100.00;100469.13;5090865;28;20035;-69
2022/04/05 01:56:41;;;;;;;40.00;21.73;;;;;;;8.91;100.00;100469.97;5087765;28;20090;-69
2022/04/05 01:59:06;;;;;;;39.90;21.08;;;;;;;8.89;100.00;100470.09;5089686;28;20454;-69
2022/04/05 02:01:31;;;;;;;39.35;21.05;;;;;;;8.81;100.00;100451.97;5087248;28;20059;-69
2022/04/05 02:03:59;;;;;;;33.90;20.52;;;;;;;8.90;100.00;100473.59;5089052;28;20036;-69
2022/04/05 02:06:25;;;;;;;39.45;21.23;;;;;;;8.89;100.00;100466.59;5092061;28;20039;-69
2022/04/05 02:08:51;;;;;;;33.63;19.42;;;;;;;8.88;100.00;100465.72;5093546;28;20028;-69
2022/04/05 02:11:17;;;;;;;37.08;20.33;;;;;;;8.87;100.00;100466.66;5088999;28;20166;-69
2022/04/05 02:13:42;;;;;;;30.63;18.85;;;;;;;8.86;100.00;100467.63;5095858;28;20046;-69
2022/04/05 02:16:08;;;;;;;28.10;18.92;;;;;;;8.87;100.00;100469.31;5070664;28;20032;-69
2022/04/05 02:18:37;;;;;;;36.20;19.08;;;;;;;8.83;100.00;100468.66;5089499;28;20038;-69
2022/04/05 02:21:05;;;;;;;32.10;18.53;;;;;;;8.87;100.00;100472.81;5086992;28;20043;-69
2022/04/05 02:23:31;;;;;;;32.65;18.30;;;;;;;8.87;100.00;100471.97;5103114;28;20040;-69
2022/04/05 02:25:57;;;;;;;30.13;19.00;;;;;;;8.86;100.00;100470.28;5090003;28;20161;-69
2022/04/05 02:28:23;;;;;;;33.75;18.77;;;;;;;8.87;100.00;100466.66;5089869;28;20437;-69
2022/04/05 02:30:48;;;;;;;31.77;18.52;;;;;;;8.88;100.00;100473.66;5087576;28;20024;-69
2022/04/05 02:33:16;;;;;;;32.63;19.45;;;;;;;8.87;100.00;100471.97;5091941;28;20034;-69
2022/04/05 02:35:44;;;;;;;27.02;17.35;;;;;;;8.87;100.00;100470.16;5095364;28;20028;-69
2022/04/05 02:38:10;;;;;;;29.23;19.83;;;;;;;8.87;100.00;100475.47;5092306;28;20035;-69
2022/04/05 02:40:36;;;;;;;36.38;20.02;;;;;;;8.85;100.00;100472.09;5094068;28;20046;-69
2022/04/05 02:43:03;;;;;;;30.75;19.67;;;;;;;8.87;100.00;100475.47;5091078;28;20032;-69
2022/04/05 02:45:29;;;;;;;33.75;21.30;;;;;;;8.85;100.00;100477.38;5093997;28;20028;-69
2022/04/05 02:47:55;;;;;;;32.00;19.55;;;;;;;8.90;100.00;100473.59;5093601;28;20055;-68
2022/04/05 02:50:22;;;;;;;31.63;20.08;;;;;;;8.86;100.00;100468.47;5090140;28;20047;-69
2022/04/05 02:52:49;;;;;;;32.72;19.05;;;;;;;8.87;100.00;100474.63;5094125;28;20065;-69
2022/04/05 02:55:16;;;;;;;40.05;22.02;;;;;;;8.89;100.00;100469.22;5093137;28;20433;-68
2022/04/05 02:57:43;;;;;;;30.55;20.30;;;;;;;8.89;100.00;100467.44;5090582;28;20058;-69
2022/04/05 03:00:12;;;;;;;31.08;20.05;;;;;;;8.87;100.00;100472.81;5091333;28;20535;-69
2022/04/05 03:02:40;;;;;;;26.73;19.13;;;;;;;8.88;100.00;100465.72;5093347;28;20494;-69
2022/04/05 03:05:06;;;;;;;39.03;19.63;;;;;;;8.83;100.00;100455.41;5091542;28;20386;-68
2022/04/05 03:07:37;;;;;;;30.98;20.15;;;;;;;8.89;100.00;100462.13;5094988;28;20039;-69
2022/04/05 03:10:08;;;;;;;33.25;20.90;;;;;;;8.90;100.00;100471.78;5096026;28;20062;-69
2022/04/05 03:12:35;;;;;;;34.53;20.13;;;;;;;8.90;100.00;100466.47;5098688;28;20102;-69
2022/04/05 03:15:04;;;;;;;32.35;18.23;;;;;;;8.87;100.00;100471.97;5097952;28;20069;-69
2022/04/05 03:17:30;;;;;;;34.72;20.13;;;;;;;8.96;100.00;100473.19;5098508;28;20028;-69
2022/04/05 03:19:55;;;;;;;29.17;18.90;;;;;;;8.90;100.00;100478.88;5092465;28;20031;-68
2022/04/05 03:22:26;;;;;;;31.45;19.02;;;;;;;8.91;100.00;100472.63;5091682;28;20062;-68
2022/04/05 03:24:53;;;;;;;30.58;17.98;;;;;;;8.90;100.00;100469.13;5088111;28;20025;-68
2022/04/05 03:27:19;;;;;;;30.02;19.15;;;;;;;8.86;100.00;100468.47;5086600;28;20126;-69
2022/04/05 03:29:45;;;;;;;36.38;20.42;;;;;;;8.91;100.00;100477.94;5090723;28;20046;-68
2022/04/05 03:32:15;;;;;;;28.00;17.73;;;;;;;8.97;100.00;100472.25;5091141;28;20474;-69
2022/04/05 03:34:41;;;;;;;;;;;;;;;8.94;100.00;100472.44;5094881;28;20012;-69
2022/04/05 03:37:07;;;;;;;31.42;19.63;;;;;;;8.91;100.00;100473.47;5106618;28;19919;-68
2022/04/05 03:39:33;;;;;;;28.10;18.35;;;;;;;8.90;100.00;100470.94;5101708;28;20024;-69
2022/04/05 03:42:00;;;;;;;29.40;18.20;;;;;;;8.87;100.00;100459.56;5080841;28;20032;-68
2022/04/05 03:44:26;;;;;;;25.95;18.08;;;;;;;8.84;100.00;100459.75;5087020;28;20034;-68
2022/04/05 03:46:56;;;;;;;27.60;19.25;;;;;;;8.87;100.00;100467.50;5089100;28;20024;-69
2022/04/05 03:49:24;;;;;;;27.70;17.27;;;;;;;8.86;100.00;100465.81;5093941;28;20118;-69
2022/04/05 03:51:52;;;;;;;26.70;18.52;;;;;;;8.81;100.00;100453.78;5087212;28;20421;-69
2022/04/05 03:54:17;;;;;;;29.48;18.00;;;;;;;8.89;100.00;100466.59;5090116;28;20487;-68
2022/04/05 03:56:44;;;;;;;32.42;18.23;;;;;;;8.88;100.00;100465.72;5091296;28;20073;-68
2022/04/05 03:59:09;;;;;;;33.53;19.38;;;;;;;8.87;100.00;100464.84;5091541;28;20031;-68
2022/04/05 04:01:36;;;;;;;26.23;17.33;;;;;;;8.93;100.00;100455.66;5089152;28;20036;-68
2022/04/05 04:04:03;;;;;;;30.50;17.73;;;;;;;8.90;100.00;100462.97;5089861;28;20107;-69
2022/04/05 04:06:28;;;;;;;24.80;17.55;;;;;;;8.83;100.00;100452.75;5090247;28;20016;-68
2022/04/05 04:08:54;;;;;;;25.83;17.80;;;;;;;8.85;100.00;100452.63;5094656;28;20153;-69
2022/04/05 04:11:20;;;;;;;23.58;17.48;;;;;;;8.89;100.00;100463.94;5088167;28;20368;-69
2022/04/05 04:13:45;;;;;;;25.73;17.23;;;;;;;8.88;100.00;100460.41;5059407;28;20128;-69
2022/04/05 04:16:11;;;;;;;24.35;17.02;;;;;;;8.89;100.00;100467.44;5055638;28;20222;-68
2022/04/05 04:18:39;;;;;;;25.30;17.67;;;;;;;8.87;100.00;100461.38;5091686;28;20051;-69
2022/04/05 04:21:05;;;;;;;25.33;17.65;;;;;;;8.86;100.00;100465.81;5091372;28;20032;-69
2022/04/05 04:23:30;;;;;;;25.85;16.98;;;;;;;8.86;100.00;100457.00;5090845;28;20035;-69
2022/04/05 04:25:56;;;;;;;25.48;17.63;;;;;;;8.89;100.00;100463.94;5054753;28;20020;-69
2022/04/05 04:28:22;;;;;;;27.80;17.63;;;;;;;8.85;100.00;100453.50;5072065;28;20031;-69
2022/04/05 04:30:49;;;;;;;25.42;17.05;;;;;;;8.86;100.00;100452.56;5105327;28;20094;-68
2022/04/05 04:33:15;;;;;;;22.52;17.75;;;;;;;8.86;100.00;100457.00;5086339;28;20040;-69
2022/04/05 04:35:43;;;;;;;24.38;17.27;;;;;;;8.85;100.00;100458.81;5086623;28;20101;-68
2022/04/05 04:38:09;;;;;;;26.88;17.42;;;;;;;8.85;100.00;100464.13;5090487;28;20020;-68
2022/04/05 04:40:36;;;;;;;27.23;18.20;;;;;;;8.87;100.00;100466.66;5098662;28;20039;-69
2022/04/05 04:43:02;;;;;;;24.83;16.15;;;;;;;8.87;100.00;100462.22;5089756;28;20055;-69
2022/04/05 04:45:29;;;;;;;26.67;18.33;;;;;;;8.84;100.00;100464.19;5087206;28;20020;-69
2022/04/05 04:47:57;;;;;;;23.33;17.65;;;;;;;8.88;100.00;100471.00;5090619;28;20050;-68
2022/04/05 04:50:22;;;;;;;26.35;18.50;;;;;;;8.86;100.00;100463.16;5101133;28;20036;-68
2022/04/05 04:52:50;;;;;;;26.23;17.20;;;;;;;8.87;100.00;100470.16;5088021;28;20503;-68
2022/04/05 04:55:16;;;;;;;26.75;16.25;;;;;;;8.81;100.00;100454.63;5093039;28;20027;-68
2022/04/05 04:57:43;;;;;;;29.65;18.20;;;;;;;8.87;100.00;100470.16;5089644;28;20131;-68
2022/04/05 05:00:11;;;;;;;27.80;18.23;;;;;;;8.89;100.00;100477.19;5087495;28;20058;-69
2022/04/05 05:02:50;;;;;;;26.48;18.95;;;;;;;8.84;100.00;100469.50;5094732;28;20028;-69
2022/04/05 05:05:20;;;;;;;25.50;17.38;;;;;;;8.84;100.00;100467.69;5088775;28;20366;-69
2022/04/05 05:07:52;;;;;;;22.40;16.65;;;;;;;8.86;100.00;100475.56;5091308;28;20027;-68
2022/04/05 05:10:24;;;;;;;26.48;17.42;;;;;;;8.84;100.00;100469.50;5087025;28;20040;-68
2022/04/05 05:12:50;;;;;;;20.60;15.57;;;;;;;8.85;100.00;100474.72;5091390;28;20028;-69
2022/04/05 05:15:21;;;;;;;22.10;16.70;;;;;;;8.87;100.00;100478.13;5093322;28;20372;-68
2022/04/05 05:17:49;;;;;;;22.35;17.25;;;;;;;8.87;100.00;100480.78;5099995;28;20023;-69
2022/04/05 05:20:16;;;;;;;21.58;16.33;;;;;;;8.86;100.00;100470.28;5090878;28;20024;-68
2022/04/05 05:22:42;;;;;;;21.38;16.10;;;;;;;8.84;100.00;100464.19;5083570;28;20461;-68
2022/04/05 05:25:09;;;;;;;22.95;16.63;;;;;;;8.85;100.00;100480.03;5086496;28;20043;-69
2022/04/05 05:27:37;;;;;;;22.30;16.58;;;;;;;8.86;100.00;100481.72;5088104;28;20446;-68
2022/04/05 05:30:07;;;;;;;23.55;17.35;;;;;;;8.94;100.00;100483.91;5104567;28;20110;-69
2022/04/05 05:32:41;;;;;;;22.77;16.77;;;;;;;8.82;100.00;100468.75;5088269;28;20367;-68
2022/04/05 05:35:08;;;;;;;21.42;16.70;;;;;;;8.85;100.00;100490.66;5090318;28;20050;-68
2022/04/05 05:37:34;;;;;;;23.65;16.85;;;;;;;8.85;100.00;100485.34;5093348;28;20027;-68
2022/04/05 05:39:59;;;;;;;23.60;17.20;;;;;;;8.86;100.00;100481.72;5095006;28;20089;-68
2022/04/05 05:42:25;;;;;;;23.80;18.10;;;;;;;8.81;100.00;100481.16;5071293;28;20036;-68
2022/04/05 05:44:50;;;;;;;22.83;18.13;;;;;;;8.86;100.00;100487.03;5089479;28;20070;-68
2022/04/05 05:47:21;;;;;;;24.80;17.00;;;;;;;8.85;100.00;100485.34;5071614;28;20059;-69
2022/04/05 05:49:49;;;;;;;25.15;18.45;;;;;;;8.85;100.00;100495.94;5073469;28;20058;-68
2022/04/05 05:52:17;;;;;;;24.38;18.88;;;;;;;8.85;100.00;100495.06;5086017;28;20541;-69
2022/04/05 05:54:45;;;;;;;23.02;18.83;;;;;;;8.83;100.00;100497.84;5089411;28;20028;-68
2022/04/05 05:57:10;;;;;;;26.92;19.15;;;;;;;8.89;100.00;100504.56;5066902;28;20048;-68
2022/04/05 05:59:35;;;;;;;24.08;18.55;;;;;;;8.87;100.00;100507.28;5069713;28;20539;-68
2022/04/05 06:02:01;;;;;;;25.38;18.75;;;;;;;8.89;100.00;100506.38;5091669;28;20536;-68
2022/04/05 06:04:27;;;;;;;31.10;20.80;;;;;;;8.89;100.00;100503.72;5092087;28;20030;-68
2022/04/05 06:06:54;;;;;;;31.00;18.95;;;;;;;8.93;100.00;100508.72;5093416;28;20487;-68
2022/04/05 06:09:20;;;;;;;28.00;19.27;;;;;;;8.90;100.00;100511.56;5077877;28;20486;-68
2022/04/05 06:11:46;;;;;;;34.65;20.48;;;;;;;8.89;100.00;100506.38;5091604;28;20080;-69
2022/04/05 06:14:11;;;;;;;25.83;19.23;;;;;;;8.81;100.00;100491.75;5073562;28;20119;-68
2022/04/05 06:16:39;;;;;;;26.92;18.88;;;;;;;8.90;100.00;100513.38;5094279;28;20036;-68
2022/04/05 06:19:07;;;;;;;27.23;18.00;;;;;;;8.91;100.00;100517.72;5076725;28;20032;-68
2022/04/05 06:21:33;;;;;;;24.10;18.15;;;;;;;8.92;100.00;100512.31;5082222;28;20029;-68
2022/04/05 06:23:58;;;;;;;29.02;18.85;;;;;;;8.92;100.00;100514.97;5102558;28;20042;-69
2022/04/05 06:26:24;;;;;;;22.98;17.35;;;;;;;8.96;100.00;100511.19;5090969;28;20024;-69
2022/04/05 06:28:55;;;;;;;26.48;17.83;;;;;;;8.94;100.00;100523.69;5076861;28;20378;-68
2022/04/05 06:31:20;;;;;;;27.65;17.52;;;;;;;8.95;100.00;100524.56;5084892;28;20024;-68
2022/04/05 06:33:46;;;;;;;27.33;17.13;;;;;;;8.96;100.00;100521.78;5072179;28;20038;-69
2022/04/05 06:36:11;;;;;;;25.73;17.30;;;;;;;8.97;100.00;100527.94;5092888;28;20038;-68
2022/04/05 06:38:37;;;;;;;25.00;16.75;;;;;;;8.96;100.00;100528.91;5095732;28;20111;-68
2022/04/05 06:41:02;;;;;;;22.30;15.45;;;;;;;9.01;100.00;100532.97;5093491;28;20048;-68
2022/04/05 06:43:29;;;;;;;23.55;15.07;;;;;;;9.04;100.00;100531.94;5092934;28;20027;-68
2022/04/05 06:45:54;;;;;;;20.88;14.88;;;;;;;9.05;100.00;100525.66;5091997;28;20031;-69
2022/04/05 06:48:20;;;;;;;24.23;16.17;;;;;;;9.06;100.00;100530.06;5088278;28;20059;-68
2022/04/05 06:50:50;;;;;;;23.70;14.63;;;;;;;9.09;100.00;100529.84;5092597;28;20043;-68
2022/04/05 06:53:16;;;;;;;;;;;;;;;9.15;100.00;100542.75;5095108;28;20028;-68
2022/04/05 06:55:44;;;;;;;21.95;14.20;;;;;;;9.10;100.00;100539.50;5092635;28;20363;-68
2022/04/05 06:58:11;;;;;;;24.40;13.30;;;;;;;9.11;100.00;100535.91;5095672;28;20052;-68
2022/04/05 07:00:37;;;;;;;20.17;14.52;;;;;;;9.09;100.00;100533.34;5097159;28;20074;-68
2022/04/05 07:03:06;;;;;;;19.98;14.15;;;;;;;9.09;100.00;100540.47;5090495;28;20031;-68
2022/04/05 07:05:31;;;;;;;18.50;12.90;;;;;;;9.15;100.00;100547.16;5094756;28;20423;-68
2022/04/05 07:07:59;;;;;;;17.58;13.02;;;;;;;9.17;100.00;100547.94;5089955;28;20110;-68
2022/04/05 07:10:25;;;;;;;20.98;12.93;;;;;;;9.16;100.00;100548.91;5090701;28;20036;-68
2022/04/05 07:12:51;;;;;;;15.93;12.27;;;;;;;9.17;100.00;100548.78;5075542;28;20031;-68
2022/04/05 07:15:18;;;;;;;21.63;13.35;;;;;;;9.18;100.00;100541.69;5093388;28;20040;-68
2022/04/05 07:17:44;;;;;;;18.88;12.38;;;;;;;9.17;100.00;100545.28;5087693;28;20108;-68
2022/04/05 07:20:10;;;;;;;17.80;12.10;;;;;;;9.16;100.00;100549.75;5092791;28;20028;-68
2022/04/05 07:22:45;;;;;;;17.52;11.52;;;;;;;9.21;100.00;100547.66;5074152;28;20432;-68
2022/04/05 07:25:12;;;;;;;16.05;11.10;;;;;;;9.20;100.00;100547.75;5090249;28;20028;-68
2022/04/05 07:27:38;;;;;;;16.90;11.63;;;;;;;9.18;100.00;100547.84;5093110;28;20024;-68
2022/04/05 07:30:06;;;;;;;20.35;12.45;;;;;;;9.19;100.00;100548.69;5091783;28;20028;-68
2022/04/05 07:32:38;;;;;;;19.25;11.35;;;;;;;9.19;100.00;100548.69;5087872;28;20016;-68
2022/04/05 07:35:04;;;;;;;25.48;12.23;;;;;;;9.20;100.00;100540.63;5088499;28;20036;-68
2022/04/05 07:37:30;;;;;;;19.45;11.77;;;;;;;9.23;100.00;100540.44;5091012;28;20049;-68
2022/04/05 07:39:58;;;;;;;21.65;11.27;;;;;;;9.25;100.00;100541.22;5093700;28;20453;-68
2022/04/05 07:42:26;;;;;;;18.63;11.07;;;;;;;9.26;100.00;100547.34;5093093;28;20024;-68
2022/04/05 07:44:54;;;;;;;16.90;11.48;;;;;;;9.27;100.00;100541.97;5090607;28;20024;-67
2022/04/05 07:47:20;;;;;;;16.02;10.75;;;;;;;9.30;100.00;100544.44;5077482;28;20042;-68
2022/04/05 07:49:48;;;;;;;17.00;10.38;;;;;;;9.33;100.00;100540.75;5100170;28;20115;-68
2022/04/05 07:52:16;;;;;;;13.65;10.38;;;;;;;9.30;100.00;100532.97;5086598;28;20016;-68
2022/04/05 07:54:42;;;;;;;18.45;11.23;;;;;;;9.36;100.00;100542.34;5091279;28;20024;-68
2022/04/05 07:57:10;;;;;;;19.52;10.75;;;;;;;9.36;100.00;100543.19;5090461;28;20445;-68
2022/04/05 07:59:36;;;;;;;13.18;10.15;;;;;;;9.36;100.00;100539.69;5088474;28;20027;-68
2022/04/05 08:02:01;;;;;;;15.43;10.73;;;;;;;9.38;100.00;100548.38;5089500;28;20028;-68
2022/04/05 08:04:29;;;;;;;15.50;9.55;;;;;;;9.40;100.00;100541.19;5084878;28;20034;-68
2022/04/05 08:06:57;;;;;;;17.58;9.95;;;;;;;9.42;100.00;100548.13;5066180;28;20039;-67
2022/04/05 08:09:24;;;;;;;15.82;10.52;;;;;;;9.38;100.00;100541.28;5090427;28;20028;-67
2022/04/05 08:11:50;;;;;;;11.27;9.98;;;;;;;9.45;100.00;100547.06;5092813;28;20032;-67
2022/04/05 08:14:19;;;;;;;15.70;9.40;;;;;;;9.46;100.00;100548.78;5091259;28;20451;-67
2022/04/05 08:16:45;;;;;;;17.73;10.68;;;;;;;9.49;100.00;100548.56;5089456;28;20445;-67
2022/04/05 08:19:13;;;;;;;12.30;8.55;;;;;;;9.47;100.00;100537.19;5095207;28;20024;-68
2022/04/05 08:21:38;;;;;;;19.65;10.20;;;;;;;9.50;100.00;100545.84;5093028;28;20047;-68
2022/04/05 08:24:04;;;;;;;14.27;9.23;;;;;;;9.51;100.00;100554.66;5092204;28;20023;-68
2022/04/05 08:26:32;;;;;;;15.00;9.27;;;;;;;9.51;100.00;100552.00;5090729;28;20028;-67
2022/04/05 08:28:58;;;;;;;13.98;9.65;;;;;;;9.57;100.00;100553.41;5092216;28;20035;-67
2022/04/05 08:31:24;;;;;;;14.55;9.00;;;;;;;9.61;100.00;100557.56;5090986;28;20438;-67
2022/04/05 08:33:49;;;;;;;14.73;9.63;;;;;;;9.62;100.00;100562.78;5090112;28;20482;-68
2022/04/05 08:36:16;;;;;;;19.05;9.38;;;;;;;9.65;100.00;100559.09;5089812;28;20150;-67
2022/04/05 08:38:42;;;;;;;11.68;8.55;;;;;;;9.66;100.00;100561.63;5087950;28;20039;-68
2022/04/05 08:41:12;;;;;;;11.25;9.40;;;;;;;9.70;100.00;100552.50;5072744;28;20024;-68
2022/04/05 08:43:41;;;;;;;16.25;9.63;;;;;;;9.74;100.00;100562.00;5088735;28;20020;-68
2022/04/05 08:46:07;;;;;;;13.63;9.10;;;;;;;9.83;100.00;100570.34;5086178;28;20111;-68
2022/04/05 08:48:34;;;;;;;12.10;8.93;;;;;;;9.84;100.00;100569.38;5089561;28;20032;-68
2022/04/05 08:51:02;;;;;;;10.23;9.20;;;;;;;9.76;100.00;100548.59;5086178;28;20032;-68
2022/04/05 08:53:30;;;;;;;14.18;8.70;;;;;;;9.85;100.00;100565.75;5088704;28;20024;-67
2022/04/05 08:55:56;;;;;;;14.68;9.60;;;;;;;9.84;100.00;100570.22;5100875;28;20024;-68
2022/04/05 08:58:21;;;;;;;13.38;8.77;;;;;;;9.83;100.00;100573.84;5086374;28;20410;-68
2022/04/05 09:00:47;;;;;;;12.40;9.00;;;;;;;9.82;100.00;100571.25;5072600;28;20122;-68
2022/04/05 09:03:15;;;;;;;14.48;9.40;;;;;;;9.83;100.00;100573.84;5095136;28;20032;-68
2022/04/05 09:05:46;;;;;;;13.30;9.90;;;;;;;9.87;100.00;100577.97;5086338;28;20443;-68
2022/04/05 09:08:14;;;;;;;10.45;8.85;;;;;;;9.91;100.00;100568.88;5089500;28;20032;-68
2022/04/05 09:10:43;;;;;;;10.40;8.52;;;;;;;9.91;100.00;100573.31;5101430;28;20031;-68
2022/04/05 09:13:15;;;;;;;19.45;10.25;;;;;;;9.95;100.00;100575.69;5098560;28;20032;-69
2022/04/05 09:15:47;;;;;;;13.85;8.90;;;;;;;9.94;100.00;100579.31;5095893;28;20055;-68
2022/04/05 09:18:13;;;;;;;15.52;9.90;;;;;;;10.01;100.00;100579.75;5088930;28;20094;-68
2022/04/05 09:20:49;;;;;;;12.68;9.88;;;;;;;10.04;100.00;100576.06;5091290;28;20472;-68
2022/04/05 09:23:34;;;;;;;11.60;9.45;;;;;;;10.10;100.00;100573.00;5096350;28;20102;-68
2022/04/05 09:26:02;;;;;;;13.23;10.25;;;;;;;10.06;100.00;100569.69;5090893;28;20054;-68
2022/04/05 09:28:42;;;;;;;14.10;9.82;;;;;;;10.09;100.00;100579.25;5093061;28;20027;-68
2022/04/05 09:31:10;;;;;;;15.32;10.57;;;;;;;10.11;100.00;100583.50;5086959;28;20024;-68
2022/04/05 09:33:39;;;;;;;14.30;10.07;;;;;;;10.11;100.00;100586.16;5090607;28;20476;-69
2022/04/05 09:36:16;;;;;;;11.10;9.75;;;;;;;10.04;100.00;100573.41;5085445;28;20024;-68
2022/04/05 09:38:44;;;;;;;12.50;9.90;;;;;;;10.18;100.00;100594.63;5095666;28;20038;-69
2022/04/05 09:41:21;;;;;;;10.98;9.88;;;;;;;10.18;100.00;100586.63;5087384;28;20035;-69
2022/04/05 09:43:55;;;;;;;12.82;11.43;;;;;;;10.08;100.00;100570.41;5091962;28;20028;-68
2022/04/05 09:46:21;;;;;;;11.55;9.85;;;;;;;10.22;100.00;100583.66;5095836;28;20019;-68
2022/04/05 09:49:11;;;;;;;15.60;10.25;;;;;;;10.28;100.00;100590.41;5092791;28;20364;-68
2022/04/05 09:51:48;;;;;;;14.55;11.48;;;;;;;10.23;100.00;100588.03;5089663;28;20069;-68
2022/04/05 09:54:22;;;;;;;13.45;11.18;;;;;;;10.28;100.00;100592.22;5076391;28;20042;-68
2022/04/05 09:56:48;;;;;;;17.50;10.60;;;;;;;10.26;100.00;100591.44;5094012;28;20052;-68
2022/04/05 09:59:19;;;;;;;11.65;10.48;;;;;;;10.22;100.00;100591.63;5095241;28;20028;-68
2022/04/05 10:01:47;;;;;;;12.25;10.23;;;;;;;10.21;100.00;100587.28;5103887;28;20138;-68
2022/04/05 10:04:15;;;;;;;14.95;10.27;;;;;;;10.28;100.00;100597.53;5094250;28;20436;-68
2022/04/05 10:06:46;;;;;;;13.13;10.05;;;;;;;10.30;100.00;100595.66;5093685;28;20486;-68
2022/04/05 10:09:14;;;;;;;14.82;10.18;;;;;;;10.34;100.00;100602.44;5093592;28;20535;-68
2022/04/05 10:11:41;;;;;;;12.52;9.20;;;;;;;10.30;100.00;100593.81;5093730;28;20039;-68
2022/04/05 10:14:09;;;;;;;14.32;9.88;;;;;;;10.28;100.00;100598.38;5092528;28;20023;-68
2022/04/05 10:16:36;;;;;;;8.68;7.82;;;;;;;10.28;100.00;100587.75;5092776;28;20035;-68
2022/04/05 10:19:05;;;;;;;11.52;8.48;;;;;;;10.38;100.00;100588.88;5093297;28;20058;-68
2022/04/05 10:21:35;;;;;;;13.68;8.13;;;;;;;10.48;100.00;100599.72;5093105;28;20024;-68
2022/04/05 10:24:05;;;;;;;10.07;8.70;;;;;;;10.60;100.00;100601.56;5089775;28;20024;-68
2022/04/05 10:26:39;;;;;;;13.77;8.80;;;;;;;10.68;100.00;100599.25;5097665;28;20020;-68
2022/04/05 10:29:07;;;;;;;10.70;8.48;;;;;;;10.79;99.90;100595.84;5115437;27;20024;-68
2022/04/05 10:31:45;;;;;;;10.48;8.15;;;;;;;10.86;99.56;100598.97;5094553;28;20016;-68
2022/04/05 10:34:22;;;;;;;9.50;7.50;;;;;;;10.85;98.79;100597.22;5089437;28;20020;-68
2022/04/05 10:37:27;;;;;;;11.23;7.88;;;;;;;10.82;98.08;100594.78;5094690;27;20032;-68
2022/04/05 10:39:58;;;;;;;9.25;8.35;;;;;;;10.89;100.00;100591.59;5097352;28;20035;-69
2022/04/05 10:42:27;;;;;;;8.85;7.50;;;;;;;10.96;98.90;100594.69;5092842;28;20066;-68
2022/04/05 10:45:08;;;;;;;9.65;7.22;;;;;;;10.97;98.64;100580.44;5095872;28;20490;-69
2022/04/05 10:48:13;;;;;;;10.25;7.60;;;;;;;11.16;96.63;100600.47;5091493;28;20031;-69
2022/04/05 10:50:41;;;;;;;8.65;6.70;;;;;;;11.03;95.78;100589.78;5091846;28;20089;-68
2022/04/05 10:53:22;;;;;;;8.77;7.10;;;;;;;11.04;97.47;100588.84;5097328;28;20052;-68
2022/04/05 10:56:02;;;;;;;11.48;7.47;;;;;;;11.01;96.06;100584.59;5090075;28;20028;-68
2022/04/05 10:58:35;;;;;;;10.27;6.70;;;;;;;10.96;94.64;100591.19;5087300;28;20032;-68
2022/04/05 11:01:23;;;;;;;7.65;6.72;;;;;;;10.99;96.10;100594.47;5091066;28;20111;-68
2022/04/05 11:04:12;;;;;;;8.48;7.25;;;;;;;11.03;96.59;100596.00;5090832;28;20020;-69
2022/04/05 11:06:59;;;;;;;10.67;6.90;;;;;;;11.12;95.21;100595.34;5092668;28;20024;-68
2022/04/05 11:09:33;;;;;;;9.18;6.75;;;;;;;11.08;95.73;100590.34;5093108;28;20027;-69
2022/04/05 11:12:09;;;;;;;8.20;6.78;;;;;;;11.18;95.96;100587.88;5099300;27;20016;-69
2022/04/05 11:14:41;;;;;;;6.82;6.13;;;;;;;11.26;95.14;100590.84;5094474;28;20439;-68
2022/04/05 11:17:09;;;;;;;8.95;6.30;;;;;;;11.41;94.40;100599.56;5101002;28;20055;-68